Time;durP1;ratioP1;P1;durP2;ratioP2;P2;SDS_P1;SDS_P2;PMS_P1;PMS_P2;Temp;Humidity;BMP_temperature;BMP_pressure;BME280_temperature;BME280_humidity;BME280_pressure;Samples;Min_cycle;Max_cycle;Signal;HPM_P1;HPM_P2
2021/12/06 00:01:22;;;;;;;21.83;15.77;;;;;;;;;;4986242;28;24413;-58
2021/12/06 00:03:52;;;;;;;22.80;17.33;;;;;;;;;;5003113;28;24992;-58
2021/12/06 00:06:19;;;;;;;21.50;16.38;;;;;;;;;;4999352;28;24965;-58
2021/12/06 00:08:44;;;;;;;20.35;15.98;;;;;;;;;;5002855;28;24444;-58
2021/12/06 00:11:10;;;;;;;24.03;16.80;;;;;;;;;;5000041;28;24428;-58
2021/12/06 00:13:36;;;;;;;23.40;17.55;;;;;;;;;;5001198;28;24447;-58
2021/12/06 00:16:06;;;;;;;25.35;17.10;;;;;;;;;;4998756;28;24970;-58
2021/12/06 00:18:32;;;;;;;27.05;17.27;;;;;;;;;;5000292;28;24432;-58
2021/12/06 00:20:57;;;;;;;19.47;15.63;;;;;;;;;;4998446;28;24436;-58
2021/12/06 00:23:22;;;;;;;26.25;17.20;;;;;;;;;;4989190;28;24421;-58
2021/12/06 00:25:47;;;;;;;20.50;15.37;;;;;;;;;;4992599;28;25176;-59
2021/12/06 00:28:12;;;;;;;25.20;16.73;;;;;;;;;;4998954;28;24409;-58
2021/12/06 00:30:38;;;;;;;21.80;17.57;;;;;;;;;;4997438;28;25013;-58
2021/12/06 00:33:03;;;;;;;24.13;18.25;;;;;;;;;;5000431;28;24815;-58
2021/12/06 00:35:29;;;;;;;23.67;18.90;;;;;;;;;;5002564;28;24443;-58
2021/12/06 00:37:58;;;;;;;23.02;18.20;;;;;;;;;;5000761;28;25157;-58
2021/12/06 00:40:28;;;;;;;25.75;20.00;;;;;;;;;;4999240;28;24598;-58
2021/12/06 00:42:53;;;;;;;23.27;18.77;;;;;;;;;;4995036;28;24412;-58
2021/12/06 00:45:19;;;;;;;22.83;18.87;;;;;;;;;;4999243;28;24654;-58
2021/12/06 00:47:45;;;;;;;20.58;17.63;;;;;;;;;;5002521;28;24487;-58
2021/12/06 00:50:10;;;;;;;22.38;18.13;;;;;;;;;;5000132;28;24436;-58
2021/12/06 00:52:35;;;;;;;22.27;17.53;;;;;;;;;;4996788;28;24421;-58
2021/12/06 00:55:01;;;;;;;21.60;17.10;;;;;;;;;;4994708;28;24423;-58
2021/12/06 00:57:26;;;;;;;20.17;15.50;;;;;;;;;;5002546;28;24571;-58
2021/12/06 00:59:51;;;;;;;20.27;16.93;;;;;;;;;;4997844;28;24432;-58
2021/12/06 01:02:17;;;;;;;17.90;15.57;;;;;;;;;;4998537;28;24416;-58
2021/12/06 01:04:43;;;;;;;19.52;15.90;;;;;;;;;;5000876;28;24491;-58
2021/12/06 01:07:08;;;;;;;20.95;16.92;;;;;;;;;;5000712;28;24412;-58
2021/12/06 01:09:34;;;;;;;22.80;17.20;;;;;;;;;;5002052;28;24433;-58
2021/12/06 01:11:59;;;;;;;20.20;16.30;;;;;;;;;;5000430;28;24421;-58
2021/12/06 01:14:24;;;;;;;18.95;16.13;;;;;;;;;;4993897;28;24415;-58
2021/12/06 01:16:50;;;;;;;19.77;15.80;;;;;;;;;;4998850;28;24524;-58
2021/12/06 01:19:15;;;;;;;19.80;15.57;;;;;;;;;;4990226;28;24467;-58
2021/12/06 01:21:51;;;;;;;20.37;16.00;;;;;;;;;;4997428;28;24965;-58
2021/12/06 01:24:20;;;;;;;17.80;15.30;;;;;;;;;;4997921;28;24995;-61
2021/12/06 01:27:14;;;;;;;21.30;16.90;;;;;;;;;;4999701;28;24493;-58
2021/12/06 01:30:02;;;;;;;17.70;15.20;;;;;;;;;;4992255;28;24547;-59
2021/12/06 01:40:24;;;;;;;22.02;18.02;;;;;;;;;;5002448;28;24499;-57
2021/12/06 01:42:49;;;;;;;22.42;17.55;;;;;;;;;;5000684;28;24420;-57
2021/12/06 01:45:14;;;;;;;25.67;18.83;;;;;;;;;;4997013;28;24935;-59
2021/12/06 01:47:41;;;;;;;21.63;17.60;;;;;;;;;;4995216;28;24513;-57
2021/12/06 01:50:11;;;;;;;24.90;19.00;;;;;;;;;;4989561;28;24425;-57
2021/12/06 01:52:39;;;;;;;31.65;21.27;;;;;;;;;;4995361;28;24440;-57
2021/12/06 01:55:05;;;;;;;24.60;19.73;;;;;;;;;;4997993;28;24436;-57
2021/12/06 01:57:32;;;;;;;25.13;19.48;;;;;;;;;;4986332;28;24428;-57
2021/12/06 01:59:57;;;;;;;26.40;20.02;;;;;;;;;;4999189;28;24432;-58
2021/12/06 02:02:24;;;;;;;26.60;20.10;;;;;;;;;;5001902;28;24539;-57
2021/12/06 02:04:50;;;;;;;31.25;22.55;;;;;;;;;;5000160;28;24435;-57
2021/12/06 02:07:16;;;;;;;36.10;25.77;;;;;;;;;;4992150;28;24421;-57
2021/12/06 02:09:42;;;;;;;35.25;25.33;;;;;;;;;;4994525;28;25199;-57
2021/12/06 02:12:08;;;;;;;36.70;25.23;;;;;;;;;;4998991;28;24435;-57
2021/12/06 02:14:45;;;;;;;35.00;23.55;;;;;;;;;;5001725;28;24429;-57
2021/12/06 02:17:19;;;;;;;37.10;25.38;;;;;;;;;;4999639;28;24521;-56
2021/12/06 02:19:48;;;;;;;33.92;24.08;;;;;;;;;;4997324;28;24985;-57
2021/12/06 02:22:24;;;;;;;33.70;23.00;;;;;;;;;;4994611;28;24413;-57
2021/12/06 02:24:52;;;;;;;34.65;23.52;;;;;;;;;;4999853;28;24497;-58
2021/12/06 02:27:17;;;;;;;34.85;24.35;;;;;;;;;;4999305;28;25159;-58
2021/12/06 02:29:44;;;;;;;34.55;25.25;;;;;;;;;;4995432;28;25094;-57
2021/12/06 02:32:11;;;;;;;35.90;25.63;;;;;;;;;;4989400;28;25020;-57
2021/12/06 02:34:38;;;;;;;35.05;25.10;;;;;;;;;;4996304;28;24501;-57
2021/12/06 02:37:03;;;;;;;36.35;25.17;;;;;;;;;;4999851;28;24487;-58
2021/12/06 02:39:29;;;;;;;38.53;26.75;;;;;;;;;;5001841;28;24490;-58
2021/12/06 02:41:56;;;;;;;36.60;25.10;;;;;;;;;;4997305;28;24429;-57
2021/12/06 02:44:21;;;;;;;39.05;27.73;;;;;;;;;;5001107;28;24417;-57
2021/12/06 02:46:47;;;;;;;38.53;27.70;;;;;;;;;;5005352;28;24439;-57
2021/12/06 02:49:12;;;;;;;37.22;27.00;;;;;;;;;;5002115;28;24426;-58
2021/12/06 02:51:37;;;;;;;40.60;27.60;;;;;;;;;;4996947;28;24520;-57
2021/12/06 02:54:26;;;;;;;40.40;27.43;;;;;;;;;;4998008;28;24834;-58
2021/12/06 02:57:07;;;;;;;36.92;26.75;;;;;;;;;;4996826;28;24428;-58
2021/12/06 02:59:33;;;;;;;38.30;27.63;;;;;;;;;;4995700;28;24425;-58
2021/12/06 03:02:00;;;;;;;38.90;27.30;;;;;;;;;;5002848;28;24482;-58
2021/12/06 03:04:25;;;;;;;38.78;27.45;;;;;;;;;;5004934;28;24420;-57
2021/12/06 03:06:54;;;;;;;37.10;26.53;;;;;;;;;;4999277;28;24862;-57
2021/12/06 03:09:22;;;;;;;36.03;26.57;;;;;;;;;;4998862;28;24600;-58
2021/12/06 03:11:52;;;;;;;36.72;27.48;;;;;;;;;;5001825;28;24938;-58
2021/12/06 03:14:20;;;;;;;37.78;27.10;;;;;;;;;;5003632;28;25040;-58
2021/12/06 03:16:45;;;;;;;36.53;26.42;;;;;;;;;;5004035;28;24435;-58
2021/12/06 03:19:10;;;;;;;32.03;24.45;;;;;;;;;;5001390;28;24436;-58
2021/12/06 03:21:36;;;;;;;31.77;23.90;;;;;;;;;;5002795;28;24503;-58
2021/12/06 03:24:01;;;;;;;32.03;26.13;;;;;;;;;;4998986;28;24554;-58
2021/12/06 03:26:27;;;;;;;33.63;25.45;;;;;;;;;;5001818;28;24420;-58
2021/12/06 03:28:53;;;;;;;33.80;24.60;;;;;;;;;;5003715;28;24506;-59
2021/12/06 03:31:18;;;;;;;30.50;23.63;;;;;;;;;;5000060;28;24444;-59
2021/12/06 03:33:46;;;;;;;34.60;25.33;;;;;;;;;;4999820;28;24503;-59
2021/12/06 03:36:11;;;;;;;32.17;24.25;;;;;;;;;;5001240;28;24424;-59
2021/12/06 03:38:37;;;;;;;30.92;21.95;;;;;;;;;;5003103;28;24787;-59
2021/12/06 03:41:03;;;;;;;31.63;24.05;;;;;;;;;;5003343;28;24418;-59
2021/12/06 03:43:28;;;;;;;36.05;24.83;;;;;;;;;;5002008;28;24424;-59
2021/12/06 03:45:53;;;;;;;31.87;23.70;;;;;;;;;;5001604;28;24499;-58
2021/12/06 03:48:19;;;;;;;33.03;24.45;;;;;;;;;;4997883;28;24424;-59
2021/12/06 03:50:44;;;;;;;31.80;24.45;;;;;;;;;;5000841;28;24423;-59
2021/12/06 03:53:09;;;;;;;33.50;24.70;;;;;;;;;;5001658;28;24996;-58
2021/12/06 03:55:34;;;;;;;32.20;24.10;;;;;;;;;;5002494;28;24418;-59
2021/12/06 03:57:59;;;;;;;35.10;26.90;;;;;;;;;;4999350;28;24405;-58
2021/12/06 04:00:24;;;;;;;35.63;26.93;;;;;;;;;;4996549;28;25286;-58
2021/12/06 04:02:50;;;;;;;35.65;26.27;;;;;;;;;;5003084;28;24512;-58
2021/12/06 04:05:15;;;;;;;33.10;25.27;;;;;;;;;;4992644;28;24550;-58
2021/12/06 04:07:40;;;;;;;33.43;25.77;;;;;;;;;;5002453;28;24431;-58
2021/12/06 04:10:06;;;;;;;29.23;23.67;;;;;;;;;;4999197;28;25139;-58
2021/12/06 04:12:31;;;;;;;31.10;24.70;;;;;;;;;;4999328;28;24416;-58
2021/12/06 04:14:58;;;;;;;29.60;23.42;;;;;;;;;;5003909;28;24463;-58
2021/12/06 04:17:23;;;;;;;31.50;24.10;;;;;;;;;;4988207;28;24448;-59
2021/12/06 04:19:49;;;;;;;32.30;25.70;;;;;;;;;;4994025;28;24483;-58
2021/12/06 04:22:15;;;;;;;29.70;24.67;;;;;;;;;;4998921;28;24508;-59
2021/12/06 04:24:40;;;;;;;30.30;24.25;;;;;;;;;;5000718;28;24455;-59
2021/12/06 04:27:15;;;;;;;29.73;23.15;;;;;;;;;;4985711;28;24460;-59
2021/12/06 04:29:42;;;;;;;28.98;24.05;;;;;;;;;;5001894;28;24435;-58
2021/12/06 04:32:08;;;;;;;29.33;23.30;;;;;;;;;;5000602;28;24424;-59
2021/12/06 04:34:33;;;;;;;31.10;25.47;;;;;;;;;;4998538;28;24509;-59
2021/12/06 04:36:58;;;;;;;29.63;24.00;;;;;;;;;;5000642;28;24427;-58
2021/12/06 04:39:23;;;;;;;30.67;25.13;;;;;;;;;;4997888;28;24919;-59
2021/12/06 04:41:49;;;;;;;28.03;23.63;;;;;;;;;;5002188;28;24495;-59
2021/12/06 04:44:14;;;;;;;31.80;25.52;;;;;;;;;;4995195;28;24748;-59
2021/12/06 04:46:39;;;;;;;29.83;24.03;;;;;;;;;;4998145;28;24459;-58
2021/12/06 04:49:05;;;;;;;29.43;25.00;;;;;;;;;;4998730;28;24511;-58
2021/12/06 04:51:30;;;;;;;30.98;25.77;;;;;;;;;;5001606;28;24432;-58
2021/12/06 04:53:56;;;;;;;30.60;26.10;;;;;;;;;;4999827;28;24474;-59
2021/12/06 04:56:23;;;;;;;30.33;24.93;;;;;;;;;;5002510;28;24443;-58
2021/12/06 04:58:52;;;;;;;30.08;24.75;;;;;;;;;;5002397;28;24444;-58
2021/12/06 05:01:18;;;;;;;29.63;24.70;;;;;;;;;;4997882;28;24459;-58
2021/12/06 05:03:44;;;;;;;33.60;26.17;;;;;;;;;;4993056;28;24811;-58
2021/12/06 05:06:11;;;;;;;30.73;25.30;;;;;;;;;;4998915;28;24947;-59
2021/12/06 05:08:38;;;;;;;28.80;24.60;;;;;;;;;;4982724;28;24416;-58
2021/12/06 05:11:04;;;;;;;29.50;24.60;;;;;;;;;;4989792;28;24446;-58
2021/12/06 05:13:30;;;;;;;28.90;24.70;;;;;;;;;;4988985;28;24510;-58
2021/12/06 05:15:55;;;;;;;28.67;23.45;;;;;;;;;;4998203;28;24444;-59
2021/12/06 05:18:21;;;;;;;34.40;26.53;;;;;;;;;;4987426;28;25034;-58
2021/12/06 05:20:46;;;;;;;29.70;24.40;;;;;;;;;;4998692;28;24543;-58
2021/12/06 05:23:11;;;;;;;29.50;24.20;;;;;;;;;;4994542;28;24397;-59
2021/12/06 05:25:37;;;;;;;28.73;24.67;;;;;;;;;;5001290;28;24565;-59
2021/12/06 05:28:04;;;;;;;30.20;24.98;;;;;;;;;;4991024;28;24416;-59
2021/12/06 05:30:30;;;;;;;31.23;24.73;;;;;;;;;;4995966;28;25032;-58
2021/12/06 05:32:59;;;;;;;33.88;27.42;;;;;;;;;;4998584;28;24416;-59
2021/12/06 05:35:24;;;;;;;31.40;25.15;;;;;;;;;;4987473;28;24413;-58
2021/12/06 05:37:53;;;;;;;31.37;24.53;;;;;;;;;;5000061;28;24423;-58
2021/12/06 05:40:22;;;;;;;32.53;25.40;;;;;;;;;;5002143;28;24424;-58
2021/12/06 05:42:47;;;;;;;31.58;24.92;;;;;;;;;;5000393;28;24435;-58
2021/12/06 05:45:14;;;;;;;27.30;22.87;;;;;;;;;;4986169;28;24412;-58
2021/12/06 05:47:39;;;;;;;29.58;25.10;;;;;;;;;;4974753;28;25000;-59
2021/12/06 05:50:06;;;;;;;33.33;26.20;;;;;;;;;;4986849;28;24592;-59
2021/12/06 05:52:31;;;;;;;28.10;24.50;;;;;;;;;;4998655;28;24504;-60
2021/12/06 05:54:56;;;;;;;28.92;24.15;;;;;;;;;;4993439;28;25026;-59
2021/12/06 05:57:21;;;;;;;33.00;25.40;;;;;;;;;;4998974;28;24407;-59
2021/12/06 05:59:46;;;;;;;31.43;26.90;;;;;;;;;;4994132;28;24510;-59
2021/12/06 06:02:12;;;;;;;29.07;24.50;;;;;;;;;;4993686;28;24428;-59
2021/12/06 06:04:38;;;;;;;29.08;23.63;;;;;;;;;;4991152;28;24431;-59
2021/12/06 06:07:03;;;;;;;29.98;23.98;;;;;;;;;;4996614;28;24468;-59
2021/12/06 06:09:29;;;;;;;25.90;22.45;;;;;;;;;;5000905;28;24428;-59
2021/12/06 06:11:54;;;;;;;29.70;25.05;;;;;;;;;;4995481;28;24822;-59
2021/12/06 06:14:19;;;;;;;29.07;23.37;;;;;;;;;;4999119;28;24546;-59
2021/12/06 06:16:50;;;;;;;31.65;25.00;;;;;;;;;;4998581;28;24922;-59
2021/12/06 06:19:16;;;;;;;28.27;23.73;;;;;;;;;;5000359;28;24440;-59
2021/12/06 06:21:41;;;;;;;30.88;25.42;;;;;;;;;;5002681;28;24519;-58
2021/12/06 06:24:07;;;;;;;31.58;26.50;;;;;;;;;;5003686;28;24508;-58
2021/12/06 06:26:32;;;;;;;32.30;26.50;;;;;;;;;;5003193;28;24475;-59
2021/12/06 06:28:57;;;;;;;27.20;24.17;;;;;;;;;;4999331;28;24467;-59
2021/12/06 06:31:22;;;;;;;28.67;24.10;;;;;;;;;;5001814;28;24519;-59
2021/12/06 06:33:47;;;;;;;30.20;25.23;;;;;;;;;;5004637;28;24442;-58
2021/12/06 06:36:13;;;;;;;27.37;23.10;;;;;;;;;;4995928;28;24436;-59
2021/12/06 06:38:38;;;;;;;34.80;27.37;;;;;;;;;;5000212;28;24547;-59
2021/12/06 06:41:03;;;;;;;28.70;25.17;;;;;;;;;;4993950;28;24447;-59
2021/12/06 06:43:29;;;;;;;29.70;24.20;;;;;;;;;;4997671;28;24423;-60
2021/12/06 06:45:54;;;;;;;28.15;24.50;;;;;;;;;;4998543;28;24413;-58
2021/12/06 06:48:19;;;;;;;27.65;23.40;;;;;;;;;;5001356;28;25005;-59
2021/12/06 06:50:45;;;;;;;26.87;22.90;;;;;;;;;;5002394;28;24392;-59
2021/12/06 06:53:10;;;;;;;27.93;24.30;;;;;;;;;;4992247;28;25182;-59
2021/12/06 06:55:35;;;;;;;28.50;24.23;;;;;;;;;;5001513;28;24407;-59
2021/12/06 06:58:00;;;;;;;27.27;23.90;;;;;;;;;;4998470;28;24822;-59
2021/12/06 07:00:31;;;;;;;29.60;25.30;;;;;;;;;;4997842;28;25230;-59
2021/12/06 07:02:56;;;;;;;29.67;25.07;;;;;;;;;;4995776;28;24608;-59
2021/12/06 07:05:22;;;;;;;29.53;24.10;;;;;;;;;;4997987;28;24515;-59
2021/12/06 07:07:47;;;;;;;29.10;24.65;;;;;;;;;;4999090;28;25031;-59
2021/12/06 07:10:13;;;;;;;28.20;25.00;;;;;;;;;;4998237;28;24447;-59
2021/12/06 07:12:50;;;;;;;32.03;27.43;;;;;;;;;;4999370;28;25425;-59
2021/12/06 07:15:17;;;;;;;26.83;23.03;;;;;;;;;;4993472;28;24429;-59
2021/12/06 07:17:42;;;;;;;28.10;24.73;;;;;;;;;;4991243;28;24444;-59
2021/12/06 07:20:08;;;;;;;27.83;24.00;;;;;;;;;;4965670;28;24437;-59
2021/12/06 07:22:33;;;;;;;28.80;24.60;;;;;;;;;;5000017;28;24455;-58
2021/12/06 07:24:58;;;;;;;28.75;23.83;;;;;;;;;;4998845;28;24478;-59
2021/12/06 07:27:23;;;;;;;27.58;24.52;;;;;;;;;;4989620;28;24575;-60
2021/12/06 07:29:48;;;;;;;28.55;24.20;;;;;;;;;;4986330;28;24981;-59
2021/12/06 07:32:14;;;;;;;27.13;23.87;;;;;;;;;;4993862;28;24420;-59
2021/12/06 07:34:39;;;;;;;27.13;23.30;;;;;;;;;;4996159;28;24962;-59
2021/12/06 07:37:04;;;;;;;29.80;25.60;;;;;;;;;;4999579;28;24425;-59
2021/12/06 07:39:29;;;;;;;26.37;23.57;;;;;;;;;;4998098;28;24509;-59
2021/12/06 07:41:55;;;;;;;27.00;23.80;;;;;;;;;;4987852;28;24936;-59
2021/12/06 07:44:20;;;;;;;26.27;23.47;;;;;;;;;;4990059;28;24452;-59
2021/12/06 07:46:46;;;;;;;24.85;21.88;;;;;;;;;;4999834;28;25194;-59
2021/12/06 07:49:11;;;;;;;26.13;23.33;;;;;;;;;;4991953;28;24422;-59
2021/12/06 07:51:37;;;;;;;25.13;22.43;;;;;;;;;;4981518;28;24400;-61
2021/12/06 07:54:02;;;;;;;25.07;21.83;;;;;;;;;;4992274;28;24443;-59
2021/12/06 07:56:27;;;;;;;23.73;20.70;;;;;;;;;;4997896;28;24451;-59
2021/12/06 07:58:53;;;;;;;24.03;21.50;;;;;;;;;;4987022;28;25017;-59
2021/12/06 08:01:18;;;;;;;23.50;21.00;;;;;;;;;;4998854;28;25034;-59
2021/12/06 08:03:43;;;;;;;22.73;20.25;;;;;;;;;;4993520;28;24420;-61
2021/12/06 08:06:09;;;;;;;24.23;21.60;;;;;;;;;;5000333;28;24450;-59
2021/12/06 08:08:35;;;;;;;22.60;20.20;;;;;;;;;;5001969;28;24425;-59
2021/12/06 08:11:02;;;;;;;23.07;20.60;;;;;;;;;;4985747;28;24413;-59
2021/12/06 08:13:29;;;;;;;21.85;19.55;;;;;;;;;;4986815;28;24413;-59
2021/12/06 08:15:56;;;;;;;22.50;19.70;;;;;;;;;;4999650;28;24795;-59
2021/12/06 08:18:22;;;;;;;21.60;19.30;;;;;;;;;;5001093;28;24415;-60
2021/12/06 08:20:47;;;;;;;21.33;19.13;;;;;;;;;;4993883;28;24436;-59
2021/12/06 08:23:12;;;;;;;20.70;18.50;;;;;;;;;;5001609;28;24406;-59
2021/12/06 08:25:38;;;;;;;22.17;19.48;;;;;;;;;;5003702;28;24447;-59
2021/12/06 08:28:04;;;;;;;20.75;18.52;;;;;;;;;;5000733;28;24446;-58
2021/12/06 08:30:29;;;;;;;25.02;22.33;;;;;;;;;;4988799;28;24499;-59
2021/12/06 08:32:57;;;;;;;20.87;18.77;;;;;;;;;;4989326;28;24428;-60
2021/12/06 08:35:22;;;;;;;23.00;20.52;;;;;;;;;;5000932;28;24772;-60
2021/12/06 08:37:48;;;;;;;23.37;20.87;;;;;;;;;;4992167;28;25057;-60
2021/12/06 08:40:14;;;;;;;23.08;20.58;;;;;;;;;;5000005;28;24483;-59
2021/12/06 08:42:41;;;;;;;24.58;21.70;;;;;;;;;;4987262;28;24425;-59
2021/12/06 08:45:06;;;;;;;24.77;21.90;;;;;;;;;;4983069;28;24660;-59
2021/12/06 08:47:32;;;;;;;24.57;21.10;;;;;;;;;;4999616;28;24470;-59
2021/12/06 08:49:57;;;;;;;25.03;22.33;;;;;;;;;;4997811;28;24988;-60
2021/12/06 08:52:22;;;;;;;23.23;20.00;;;;;;;;;;5002558;28;24504;-59
2021/12/06 08:54:48;;;;;;;24.13;21.53;;;;;;;;;;5002669;28;24515;-60
2021/12/06 08:57:13;;;;;;;22.60;19.90;;;;;;;;;;4996066;28;24427;-59
2021/12/06 08:59:38;;;;;;;25.33;22.03;;;;;;;;;;4993875;28;24435;-59
2021/12/06 09:02:03;;;;;;;23.53;20.10;;;;;;;;;;4998275;28;24423;-59
2021/12/06 09:04:31;;;;;;;24.27;21.67;;;;;;;;;;5000388;28;25092;-59
2021/12/06 09:06:58;;;;;;;23.63;21.05;;;;;;;;;;4998968;28;24767;-59
2021/12/06 09:09:24;;;;;;;25.80;21.80;;;;;;;;;;5002428;28;24938;-59
2021/12/06 09:11:51;;;;;;;26.17;22.88;;;;;;;;;;4991545;28;24519;-59
2021/12/06 09:14:17;;;;;;;25.00;22.30;;;;;;;;;;4996130;28;24447;-60
2021/12/06 09:16:42;;;;;;;25.60;22.40;;;;;;;;;;4990289;28;25038;-59
2021/12/06 09:19:08;;;;;;;25.30;22.50;;;;;;;;;;4986287;28;24658;-59
2021/12/06 09:21:36;;;;;;;25.98;22.48;;;;;;;;;;4993975;28;24842;-59
2021/12/06 09:24:03;;;;;;;28.95;22.88;;;;;;;;;;5001846;28;24405;-59
2021/12/06 09:26:28;;;;;;;28.88;23.25;;;;;;;;;;4994317;28;24818;-59
2021/12/06 09:28:54;;;;;;;27.97;23.17;;;;;;;;;;4997758;28;25017;-59
2021/12/06 09:31:19;;;;;;;26.50;21.45;;;;;;;;;;4986795;28;24417;-59
2021/12/06 09:33:44;;;;;;;29.08;22.90;;;;;;;;;;4989699;28;24451;-59
2021/12/06 09:36:12;;;;;;;29.70;23.80;;;;;;;;;;5000063;28;24475;-59
2021/12/06 09:38:39;;;;;;;32.50;24.65;;;;;;;;;;4997079;28;25013;-59
2021/12/06 09:41:07;;;;;;;32.72;25.70;;;;;;;;;;4993796;28;24731;-59
2021/12/06 09:43:37;;;;;;;33.38;26.35;;;;;;;;;;4999148;28;24417;-60
2021/12/06 09:46:02;;;;;;;32.17;25.77;;;;;;;;;;5000377;28;24925;-59
2021/12/06 09:48:28;;;;;;;33.05;25.67;;;;;;;;;;4985299;28;24420;-59
2021/12/06 09:50:58;;;;;;;32.00;25.00;;;;;;;;;;4996737;28;24429;-59
2021/12/06 09:53:27;;;;;;;32.58;25.58;;;;;;;;;;4990156;28;24451;-59
2021/12/06 09:55:53;;;;;;;30.40;24.30;;;;;;;;;;5003478;28;24692;-58
2021/12/06 09:58:19;;;;;;;36.33;27.40;;;;;;;;;;5000862;28;24492;-60
2021/12/06 10:00:47;;;;;;;32.47;25.33;;;;;;;;;;4998525;28;24440;-59
2021/12/06 10:03:15;;;;;;;32.35;24.65;;;;;;;;;;5001008;28;24590;-59
2021/12/06 10:05:41;;;;;;;30.17;24.25;;;;;;;;;;5003154;28;24466;-59
2021/12/06 10:08:06;;;;;;;32.03;24.73;;;;;;;;;;5002842;28;24523;-59
2021/12/06 10:10:31;;;;;;;30.80;24.60;;;;;;;;;;5003360;28;24437;-59
2021/12/06 10:12:56;;;;;;;32.57;25.87;;;;;;;;;;4993506;28;24432;-59
2021/12/06 10:15:25;;;;;;;32.13;25.10;;;;;;;;;;4990990;28;24455;-59
2021/12/06 10:17:50;;;;;;;31.80;25.17;;;;;;;;;;5001613;28;24894;-59
2021/12/06 10:20:15;;;;;;;29.57;23.77;;;;;;;;;;5003412;28;24971;-59
2021/12/06 10:22:40;;;;;;;32.05;25.65;;;;;;;;;;4996984;28;24417;-59
2021/12/06 10:25:06;;;;;;;33.87;26.37;;;;;;;;;;4997133;28;24802;-59
2021/12/06 10:27:32;;;;;;;33.25;26.77;;;;;;;;;;5000461;28;24396;-59
2021/12/06 10:30:01;;;;;;;34.65;26.75;;;;;;;;;;4991433;28;25463;-59
2021/12/06 10:32:30;;;;;;;34.90;27.23;;;;;;;;;;4998074;28;24767;-59
2021/12/06 10:35:00;;;;;;;30.95;25.23;;;;;;;;;;5004190;28;25247;-59
2021/12/06 10:37:34;;;;;;;34.00;26.88;;;;;;;;;;5004537;28;24463;-59
2021/12/06 10:40:00;;;;;;;34.57;27.50;;;;;;;;;;5003934;28;25025;-59
2021/12/06 10:42:26;;;;;;;36.00;27.85;;;;;;;;;;4996062;28;24440;-58
2021/12/06 10:44:52;;;;;;;36.08;28.13;;;;;;;;;;4999036;28;24420;-59
2021/12/06 10:47:17;;;;;;;33.97;26.90;;;;;;;;;;5000575;28;24423;-59
2021/12/06 10:49:46;;;;;;;36.67;28.70;;;;;;;;;;5003776;28;24408;-59
2021/12/06 10:52:11;;;;;;;36.10;28.27;;;;;;;;;;5000768;28;24571;-59
2021/12/06 10:54:38;;;;;;;39.33;29.73;;;;;;;;;;4999857;28;24520;-58
2021/12/06 10:57:04;;;;;;;36.00;28.00;;;;;;;;;;4997570;28;24419;-59
2021/12/06 10:59:37;;;;;;;34.88;27.92;;;;;;;;;;4999819;28;24558;-59
2021/12/06 11:02:04;;;;;;;37.42;30.30;;;;;;;;;;4998272;28;24405;-59
2021/12/06 11:04:29;;;;;;;35.60;27.65;;;;;;;;;;5003870;28;24420;-59
2021/12/06 11:06:58;;;;;;;38.80;29.90;;;;;;;;;;5000973;28;24894;-59
2021/12/06 11:09:24;;;;;;;34.92;28.15;;;;;;;;;;4997581;28;24790;-59
2021/12/06 11:11:54;;;;;;;35.35;29.05;;;;;;;;;;5002113;28;25394;-59
2021/12/06 11:14:22;;;;;;;37.40;28.45;;;;;;;;;;5000520;28;24424;-58
2021/12/06 11:17:07;;;;;;;34.60;27.98;;;;;;;;;;4998797;28;24779;-60
2021/12/06 11:19:32;;;;;;;34.97;27.70;;;;;;;;;;5001314;28;24867;-59
2021/12/06 11:22:00;;;;;;;35.47;27.63;;;;;;;;;;4987591;28;24488;-58
2021/12/06 11:24:26;;;;;;;38.67;30.77;;;;;;;;;;4997994;28;24420;-58
2021/12/06 11:27:00;;;;;;;38.50;29.48;;;;;;;;;;4992860;28;24450;-61
2021/12/06 11:29:25;;;;;;;33.88;27.45;;;;;;;;;;4989390;28;24997;-58
2021/12/06 11:32:09;;;;;;;32.80;25.90;;;;;;;;;;4997295;28;24420;-59
2021/12/06 11:34:38;;;;;;;30.67;25.15;;;;;;;;;;4999460;28;24427;-59
2021/12/06 11:37:10;;;;;;;30.15;26.23;;;;;;;;;;4986520;28;24432;-59
2021/12/06 11:39:35;;;;;;;34.67;28.88;;;;;;;;;;4992370;28;24425;-59
2021/12/06 11:42:00;;;;;;;31.75;26.10;;;;;;;;;;4992531;28;24981;-60
2021/12/06 11:44:30;;;;;;;34.42;27.35;;;;;;;;;;5000852;28;24508;-59
2021/12/06 11:46:57;;;;;;;35.28;28.63;;;;;;;;;;5003824;28;24566;-59
2021/12/06 11:49:26;;;;;;;32.40;26.67;;;;;;;;;;4999950;28;24496;-59
2021/12/06 11:51:52;;;;;;;31.40;25.80;;;;;;;;;;4998586;28;24412;-59
2021/12/06 11:54:17;;;;;;;30.87;25.93;;;;;;;;;;5000827;28;24539;-59
2021/12/06 11:56:45;;;;;;;31.53;26.27;;;;;;;;;;5000122;28;24407;-59
2021/12/06 11:59:11;;;;;;;33.25;26.60;;;;;;;;;;4998700;28;24440;-59
2021/12/06 12:01:38;;;;;;;34.50;27.30;;;;;;;;;;4996767;28;24510;-59
2021/12/06 12:04:23;;;;;;;31.75;25.55;;;;;;;;;;4996701;28;24414;-60
2021/12/06 12:07:00;;;;;;;32.42;26.33;;;;;;;;;;4998166;28;24536;-60
2021/12/06 12:09:30;;;;;;;30.38;25.08;;;;;;;;;;4997820;28;24448;-59
2021/12/06 12:12:22;;;;;;;31.98;25.13;;;;;;;;;;4998484;28;24416;-59
2021/12/06 12:14:55;;;;;;;32.00;25.50;;;;;;;;;;4994970;28;24460;-59
2021/12/06 12:17:22;;;;;;;30.58;24.95;;;;;;;;;;5000491;28;24551;-59
2021/12/06 12:19:48;;;;;;;31.60;25.52;;;;;;;;;;4999968;28;24535;-60
2021/12/06 12:22:14;;;;;;;32.13;26.47;;;;;;;;;;4997492;28;24443;-59
2021/12/06 12:24:43;;;;;;;32.10;26.20;;;;;;;;;;4994853;28;24464;-59
2021/12/06 12:29:54;;;;;;;31.38;26.00;;;;;;;;;;5000413;28;24470;-59
2021/12/06 12:32:20;;;;;;;33.95;26.58;;;;;;;;;;4997085;28;24532;-59
2021/12/06 12:34:58;;;;;;;28.75;24.02;;;;;;;;;;5064338;27;24651;-61
2021/12/06 12:37:24;;;;;;;30.35;24.13;;;;;;;;;;5074974;28;24989;-61
2021/12/06 12:39:59;;;;;;;27.63;23.37;;;;;;;;;;5076389;28;24402;-61
2021/12/06 12:42:25;;;;;;;27.80;22.70;;;;;;;;;;5060581;28;24883;-60
2021/12/06 12:44:51;;;;;;;29.17;23.45;;;;;;;;;;5064529;28;24605;-61
2021/12/06 12:47:24;;;;;;;30.52;23.95;;;;;;;;;;5052634;28;24410;-60
2021/12/06 12:49:51;;;;;;;30.73;24.33;;;;;;;;;;5050757;28;24419;-61
2021/12/06 12:52:33;;;;;;;27.35;22.30;;;;;;;;;;5055574;28;24548;-61
2021/12/06 12:54:58;;;;;;;28.97;23.60;;;;;;;;;;5054159;28;24470;-61
2021/12/06 12:57:34;;;;;;;27.55;22.13;;;;;;;;;;5055736;28;24434;-60
2021/12/06 13:00:02;;;;;;;28.33;23.48;;;;;;;;;;5056054;28;24410;-60
2021/12/06 13:02:32;;;;;;;27.50;23.05;;;;;;;;;;5055025;28;24426;-61
2021/12/06 13:04:57;;;;;;;28.63;23.90;;;;;;;;;;5055495;28;24452;-61
2021/12/06 13:07:30;;;;;;;25.40;22.10;;;;;;;;;;5064112;28;24423;-60
2021/12/06 13:09:57;;;;;;;27.70;22.52;;;;;;;;;;5051767;28;24445;-61
2021/12/06 13:12:22;;;;;;;25.85;22.42;;;;;;;;;;5051634;28;24414;-61
2021/12/06 13:14:58;;;;;;;25.93;22.10;;;;;;;;;;5055985;28;24423;-60
2021/12/06 13:17:41;;;;;;;26.48;22.52;;;;;;;;;;5062280;28;25016;-60
2021/12/06 13:20:10;;;;;;;27.00;20.90;;;;;;;;;;5057999;28;24816;-60
2021/12/06 13:22:48;;;;;;;27.10;22.02;;;;;;;;;;5049747;28;24415;-61
2021/12/06 13:25:15;;;;;;;27.42;21.25;;;;;;;;;;5050088;28;24426;-60
2021/12/06 13:27:45;;;;;;;26.20;20.30;;;;;;;;;;5050200;28;25176;-59
2021/12/06 13:30:20;;;;;;;22.77;20.02;;;;;;;;;;5054950;28;25027;-59
2021/12/06 13:32:51;;;;;;;23.00;18.42;;;;;;;;;;5057161;28;24852;-60
2021/12/06 13:35:17;;;;;;;24.00;20.02;;;;;;;;;;5085166;28;24464;-59
2021/12/06 13:37:42;;;;;;;26.23;20.58;;;;;;;;;;5077804;28;24431;-56
2021/12/06 13:40:14;;;;;;;25.40;21.13;;;;;;;;;;5085519;28;24422;-57
2021/12/06 13:42:40;;;;;;;22.65;19.50;;;;;;;;;;5085101;28;25013;-57
2021/12/06 13:45:14;;;;;;;22.93;19.03;;;;;;;;;;5075354;28;24504;-56
2021/12/06 13:47:40;;;;;;;25.95;20.73;;;;;;;;;;5066210;28;24421;-57
2021/12/06 13:50:13;;;;;;;24.90;20.15;;;;;;;;;;5065199;28;24421;-56
2021/12/06 13:52:40;;;;;;;24.30;20.10;;;;;;;;;;5072432;28;24442;-59
2021/12/06 13:55:40;;;;;;;24.27;20.02;;;;;;;;;;5071318;28;24502;-59
2021/12/06 13:58:06;;;;;;;24.60;20.55;;;;;;;;;;5030471;28;24437;-60
2021/12/06 14:00:42;;;;;;;23.98;20.00;;;;;;;;;;5070169;28;25000;-59
2021/12/06 14:03:12;;;;;;;25.38;20.88;;;;;;;;;;5067318;28;25024;-59
2021/12/06 14:05:39;;;;;;;29.00;22.42;;;;;;;;;;5067218;28;24443;-59
2021/12/06 14:08:04;;;;;;;23.98;20.08;;;;;;;;;;5067959;28;26413;-59
2021/12/06 14:10:32;;;;;;;25.10;20.80;;;;;;;;;;5067561;28;24984;-59
2021/12/06 14:12:57;;;;;;;25.40;21.45;;;;;;;;;;5063642;28;24516;-59
2021/12/06 14:15:36;;;;;;;26.05;20.60;;;;;;;;;;5061302;28;24471;-60
2021/12/06 14:18:03;;;;;;;27.03;21.33;;;;;;;;;;5060112;28;25226;-58
2021/12/06 14:20:28;;;;;;;25.30;20.63;;;;;;;;;;5064903;28;25009;-58
2021/12/06 14:22:54;;;;;;;25.40;20.60;;;;;;;;;;5070442;28;24461;-58
2021/12/06 14:25:19;;;;;;;30.23;23.42;;;;;;;;;;5066184;28;24409;-58
2021/12/06 14:27:46;;;;;;;25.07;20.53;;;;;;;;;;5058378;28;24939;-59